الكل
Jever Air Base Airport (Schortens) ETNJ حالة الطقس
There is no TAF data available at ETNJ. Showing TAF data for EDWE (29 mi غرب).
توقع منطقة محطة المطار EME (لا توجد بيانات لـETNJ)
| Date | Time (CEST) | Flight Rules | Wind Dir. | Speed | Type | Height AGL (ft) | Visibility | Remarks | ||||||
|---|---|---|---|---|---|---|---|---|---|---|---|---|---|---|
| 02-ماي | 22:00 | VFR | 350° | 2 kt | Clouds and Visibility are OK | >= 6 miles | Becoming. | |||||||
| 02-ماي | 21:00 | VFR | 350° | 2 kt | Clouds and Visibility are OK | >= 6 miles | Becoming. | |||||||
| 02-ماي | 20:00 | VFR | 350° | 2 kt | Clouds and Visibility are OK | >= 6 miles | Becoming. | |||||||
| 02-ماي | 19:00 | VFR | 290° | 8 kt | Clouds and Visibility are OK | >= 6 miles | ||||||||
| 02-ماي | 18:00 | VFR | 290° | 8 kt | Clouds and Visibility are OK | >= 6 miles | ||||||||
| 02-ماي | 17:00 | VFR | 290° | 8 kt | Clouds and Visibility are OK | >= 6 miles | ||||||||
There is no METAR data available at ETNJ. Showing METAR data for ETNT (9 mi غرب).
محفوظات أحدث تقرير روتيني عن حالة الطقس من أجل الطيران (الميتار) ETNT ( لا توجد بيانات لـETNJ)
| Date | Time (CEST) | Flight Rules | Wind Dir. | Speed | Type | Height AGL (ft) | Visibility | Temp (°C) | Temp (°F) | Dew Point (°C) | Dew Point (°F) | Rel. Humid. | Pressure | Density Altitude | Remarks |
|---|---|---|---|---|---|---|---|---|---|---|---|---|---|---|---|
| 02-ماي | 16:20 | VFR | 300° | 8 kt | 10000 meters | 23° | 73° | 7° | 44° | 36% | 1015 mb | 933 ft | |||
| 02-ماي | 15:20 | VFR | 300° | 9 kt | 10000 meters | 24° | 75° | 8° | 46° | 36% | 1015 mb | 1,053 ft | |||
| 02-ماي | 14:20 | VFR | 230° | 9 kt | 10000 meters | 24° | 75° | 2° | 35° | 24% | 1015 mb | 1,053 ft | |||
| 02-ماي | 13:20 | VFR | 230° | 9 kt | 10000 meters | 24° | 75° | 0° | 32° | 20% | 1016 mb | 1,024 ft | |||
| 02-ماي | 12:20 | VFR | 210° | 10 kt | 10000 meters | 24° | 75° | 1° | 33° | 22% | 1016 mb | 1,024 ft | |||
| 02-ماي | 11:20 | VFR | 200° | 7 kt | 10000 meters | 22° | 71° | 5° | 41° | 33% | 1017 mb | 754 ft | |||
| 02-ماي | 10:20 | VFR | 210° | 6 kt | 10000 meters | 20° | 68° | 5° | 41° | 37% | 1017 mb | 514 ft | |||
| 02-ماي | 09:20 | VFR | 200° | 8 kt | 10000 meters | 17° | 62° | 5° | 41° | 45% | 1018 mb | 124 ft | |||
| 02-ماي | 08:20 | VFR | 180° | 6 kt | 10000 meters | 15° | 59° | 5° | 41° | 51% | 1018 mb | -116 ft | |||
| 02-ماي | 07:20 | VFR | 190° | 4 kt | 10000 meters | 12° | 53° | 5° | 41° | 62% | 1018 mb | -476 ft | |||
| 02-ماي | 06:20 | VFR | 170° | 2 kt | 10000 meters | 9° | 48° | 5° | 41° | 76% | 1018 mb | -836 ft | |||
| 02-ماي | 05:20 | VFR | 160° | 3 kt | 10000 meters | 11° | 51° | 5° | 41° | 66% | 1018 mb | -596 ft | |||
| 02-ماي | 04:20 | VFR | Variable | 3 kt | 10000 meters | 11° | 51° | 5° | 41° | 66% | 1019 mb | -625 ft | |||
| 02-ماي | 03:20 | VFR | 140° | 2 kt | 10000 meters | 10° | 50° | 5° | 41° | 71% | 1020 mb | -775 ft | |||
| 02-ماي | 02:20 | VFR | 180° | 4 kt | 10000 meters | 14° | 57° | 5° | 41° | 55% | 1020 mb | -295 ft | |||
| 02-ماي | 01:20 | VFR | 150° | 4 kt | 10000 meters | 13° | 55° | 4° | 39° | 54% | 1021 mb | -444 ft | |||
| 02-ماي | 00:20 | VFR | 140° | 3 kt | 10000 meters | 13° | 55° | 4° | 39° | 54% | 1021 mb | -444 ft | |||
| 01-ماي | 23:20 | VFR | 130° | 4 kt | 10000 meters | 15° | 59° | 4° | 39° | 48% | 1021 mb | -204 ft | |||
| 01-ماي | 22:20 | VFR | 100° | 3 kt | 10000 meters | 14° | 57° | 4° | 39° | 51% | 1022 mb | -354 ft | |||
| 01-ماي | 21:20 | VFR | 140° | 2 kt | 10000 meters | 17° | 62° | 4° | 39° | 42% | 1022 mb | 6 ft | |||
| 01-ماي | 20:20 | VFR | 140° | 6 kt | 10000 meters | 21° | 69° | 3° | 37° | 30% | 1022 mb | 486 ft | |||
| 01-ماي | 19:20 | VFR | 150° | 8 kt | 10000 meters | 22° | 71° | 2° | 35° | 27% | 1022 mb | 606 ft | |||
| 01-ماي | 18:20 | VFR | 160° | 9 kt | 10000 meters | 23° | 73° | 2° | 35° | 25% | 1023 mb | 697 ft | |||
| 01-ماي | 17:20 | VFR | 160° | 10 kt | 10000 meters | 23° | 73° | 2° | 35° | 25% | 1023 mb | 697 ft |
تسجيل الدخول
| مُتصفحك غير مُدعَّم. قم بترقية متصفحك |
